createdAt,value
2022-09-04T00:00:56.928Z,69.70
2022-09-04T00:03:39.862Z,69.70
2022-09-04T00:06:22.543Z,70.00
2022-09-04T00:09:06.431Z,70.30
2022-09-04T00:11:52.636Z,70.50
2022-09-04T00:14:23.767Z,70.90
2022-09-04T00:17:05.927Z,71.20
2022-09-04T00:19:41.046Z,71.30
2022-09-04T00:22:27.521Z,72.10
2022-09-04T00:25:13.063Z,72.60
2022-09-04T00:27:46.092Z,72.90
2022-09-04T00:33:27.434Z,73.50
2022-09-04T00:36:03.224Z,73.80
2022-09-04T00:38:43.104Z,74.20
2022-09-04T00:41:27.677Z,74.50
2022-09-04T00:44:10.501Z,74.60
2022-09-04T00:47:10.753Z,74.40
2022-09-04T00:49:50.888Z,75.10
2022-09-04T00:52:38.680Z,75.60
2022-09-04T00:55:21.916Z,76.00
2022-09-04T00:58:25.376Z,76.20
2022-09-04T01:00:58.157Z,76.40
2022-09-04T01:03:55.285Z,76.60
2022-09-04T01:06:40.347Z,76.60
2022-09-04T01:09:47.928Z,77.00
2022-09-04T01:12:31.015Z,77.20
2022-09-04T01:15:22.154Z,77.90
2022-09-04T01:18:03.505Z,78.40
2022-09-04T01:20:53.214Z,78.60
2022-09-04T01:23:57.127Z,78.90
2022-09-04T01:26:33.987Z,79.20
2022-09-04T01:29:23.459Z,79.80
2022-09-04T01:31:59.959Z,79.80
2022-09-04T01:34:53.219Z,79.70
2022-09-04T01:37:49.376Z,79.70
2022-09-04T01:40:35.766Z,79.90
2022-09-04T01:43:17.158Z,80.40
2022-09-04T01:46:22.247Z,80.60
2022-09-04T01:48:55.622Z,80.90
2022-09-04T01:51:33.496Z,82.20
2022-09-04T01:54:23.846Z,81.90
2022-09-04T01:57:01.872Z,82.20
2022-09-04T01:59:42.105Z,82.70
2022-09-04T02:02:34.455Z,83.00
2022-09-04T02:05:14.391Z,83.10
2022-09-04T02:07:48.841Z,83.60
2022-09-04T02:10:39.688Z,83.90
2022-09-04T02:13:17.817Z,84.30
2022-09-04T02:16:09.106Z,84.60
2022-09-04T02:18:47.203Z,84.70
2022-09-04T02:21:43.604Z,85.00
2022-09-04T02:24:23.405Z,85.30
2022-09-04T02:27:08.052Z,86.10
2022-09-04T02:29:49.151Z,86.70
2022-09-04T02:32:23.679Z,87.20
2022-09-04T02:34:58.419Z,87.90
2022-09-04T02:37:47.542Z,88.10
2022-09-04T02:40:21.590Z,88.50
2022-09-04T02:43:08.103Z,88.70
2022-09-04T02:45:49.788Z,89.10
2022-09-04T02:48:25.531Z,89.60
2022-09-04T02:51:13.945Z,90.00
2022-09-04T02:53:51.063Z,90.20
2022-09-04T02:56:35.564Z,90.40
2022-09-04T02:59:14.993Z,90.50
2022-09-04T03:01:51.968Z,90.40
2022-09-04T03:04:28.347Z,90.70
2022-09-04T03:07:02.334Z,90.80
2022-09-04T03:09:35.929Z,90.80
2022-09-04T03:12:28.371Z,90.80
2022-09-04T03:15:03.936Z,90.90
2022-09-04T03:17:41.305Z,91.00
2022-09-04T03:23:09.992Z,91.30
2022-09-04T03:25:55.714Z,91.30
2022-09-04T03:28:41.941Z,91.30
2022-09-04T03:31:34.807Z,91.40
2022-09-04T03:34:20.484Z,91.50
2022-09-04T03:37:06.051Z,91.70
2022-09-04T03:39:53.611Z,91.80
2022-09-04T03:42:38.942Z,92.00
2022-09-04T03:45:20.884Z,92.20
2022-09-04T03:48:06.097Z,92.30
2022-09-04T03:50:51.058Z,92.40
2022-09-04T03:53:30.550Z,92.50
2022-09-04T03:56:21.030Z,92.90
2022-09-04T03:59:01.976Z,92.60
2022-09-04T04:01:42.620Z,92.70
2022-09-04T04:04:39.950Z,92.70
2022-09-04T04:07:14.992Z,93.10
2022-09-04T04:10:13.766Z,92.90
2022-09-04T04:13:12.329Z,93.00
2022-09-04T04:15:54.269Z,93.00
2022-09-04T04:18:55.326Z,93.10
2022-09-04T04:21:32.690Z,93.10
2022-09-04T04:24:31.485Z,93.20
2022-09-04T04:27:18.947Z,93.30
2022-09-04T04:30:07.295Z,93.40
2022-09-04T04:33:00.771Z,93.50
2022-09-04T04:35:34.910Z,93.60
2022-09-04T04:38:18.343Z,93.70
2022-09-04T04:41:06.386Z,93.80
2022-09-04T04:43:50.164Z,93.80
2022-09-04T04:46:23.094Z,93.80
2022-09-04T04:49:10.480Z,93.90
2022-09-04T04:52:00.993Z,93.80
2022-09-04T04:54:51.300Z,93.80
2022-09-04T04:57:31.179Z,93.90
2022-09-04T05:00:11.554Z,94.00
2022-09-04T05:02:49.523Z,94.10
2022-09-04T05:05:31.031Z,94.10
2022-09-04T05:08:09.492Z,94.10
2022-09-04T05:10:46.529Z,94.20
2022-09-04T05:13:23.944Z,94.20
2022-09-04T05:16:09.250Z,94.30
2022-09-04T05:18:53.922Z,94.40
2022-09-04T05:21:32.183Z,94.40
2022-09-04T05:24:05.457Z,94.50
2022-09-04T05:26:44.805Z,94.50
2022-09-04T05:29:32.762Z,94.50
2022-09-04T05:32:10.838Z,94.60
2022-09-04T05:35:06.545Z,94.60
2022-09-04T05:37:45.276Z,94.70
2022-09-04T05:40:24.560Z,95.00
2022-09-04T05:43:17.800Z,94.70
2022-09-04T05:45:59.098Z,94.80
2022-09-04T05:48:46.924Z,94.80
2022-09-04T05:51:52.921Z,94.80
2022-09-04T05:54:52.465Z,94.80
2022-09-04T05:57:39.428Z,95.00
2022-09-04T06:00:14.576Z,95.10
2022-09-04T06:03:24.282Z,95.10
2022-09-04T06:06:11.149Z,95.10
2022-09-04T06:09:07.525Z,95.20
2022-09-04T06:11:52.729Z,95.20
2022-09-04T06:14:43.120Z,95.30
2022-09-04T06:17:29.658Z,95.40
2022-09-04T06:20:30.316Z,95.50
2022-09-04T06:23:27.133Z,95.50
2022-09-04T06:26:20.726Z,95.70
2022-09-04T06:29:14.660Z,95.70
2022-09-04T06:32:24.136Z,95.70
2022-09-04T06:35:19.001Z,95.80
2022-09-04T06:37:52.390Z,95.90
2022-09-04T06:40:35.390Z,95.80
2022-09-04T06:43:15.971Z,96.10
2022-09-04T06:46:02.204Z,96.10
2022-09-04T06:48:43.702Z,96.10
2022-09-04T06:51:23.968Z,96.10
2022-09-04T06:54:00.525Z,96.10
2022-09-04T06:56:45.246Z,96.10
2022-09-04T06:59:42.677Z,96.00
2022-09-04T07:02:25.991Z,95.90
2022-09-04T07:05:05.191Z,96.10
2022-09-04T07:07:42.489Z,96.40
2022-09-04T07:10:18.231Z,96.10
2022-09-04T07:13:23.640Z,96.00
2022-09-04T07:16:16.616Z,96.00
2022-09-04T07:19:22.336Z,95.90
2022-09-04T07:22:00.121Z,96.10
2022-09-04T07:24:59.485Z,95.70
2022-09-04T07:27:54.779Z,95.60
2022-09-04T07:30:39.439Z,95.60
2022-09-04T07:33:14.109Z,95.60
2022-09-04T07:35:49.308Z,95.50
2022-09-04T07:38:36.722Z,95.40
2022-09-04T07:41:17.741Z,95.40
2022-09-04T07:43:55.062Z,95.30
2022-09-04T07:46:40.263Z,95.30
2022-09-04T07:49:18.795Z,95.20
2022-09-04T07:51:54.763Z,95.20
2022-09-04T07:54:52.158Z,95.20
2022-09-04T07:57:52.507Z,95.10
2022-09-04T08:00:22.788Z,95.20
2022-09-04T08:03:22.431Z,95.20
2022-09-04T08:05:56.992Z,95.10
2022-09-04T08:08:56.883Z,95.20
2022-09-04T08:12:06.048Z,95.10
2022-09-04T08:14:54.515Z,95.00
2022-09-04T08:17:53.009Z,95.00
2022-09-04T08:20:41.341Z,95.00
2022-09-04T08:23:42.435Z,94.90
2022-09-04T08:26:24.169Z,94.80
2022-09-04T08:29:24.581Z,94.70
2022-09-04T08:32:04.557Z,94.50
2022-09-04T08:34:57.843Z,94.50
2022-09-04T08:37:39.548Z,94.40
2022-09-04T08:40:59.657Z,94.20
2022-09-04T08:43:55.921Z,94.00
2022-09-04T08:46:49.440Z,93.90
2022-09-04T08:49:58.059Z,93.70
2022-09-04T08:53:03.158Z,93.50
2022-09-04T08:56:03.763Z,93.40
2022-09-04T08:59:25.613Z,93.40
2022-09-04T09:02:27.508Z,93.20
2022-09-04T09:05:28.921Z,93.10
2022-09-04T09:08:20.021Z,93.00
2022-09-04T09:11:25.384Z,92.90
2022-09-04T09:14:36.455Z,92.50
2022-09-04T09:17:17.017Z,92.40
2022-09-04T09:19:59.724Z,92.30
2022-09-04T09:23:21.060Z,92.10
2022-09-04T09:25:56.689Z,91.80
2022-09-04T09:29:02.122Z,91.70
2022-09-04T09:32:18.701Z,91.40
2022-09-04T09:35:13.454Z,91.20
2022-09-04T09:38:26.175Z,90.90
2022-09-04T09:41:33.638Z,90.70
2022-09-04T09:44:36.246Z,90.40
2022-09-04T09:47:39.780Z,90.30
2022-09-04T09:50:44.322Z,90.00
2022-09-04T09:54:05.685Z,89.80
2022-09-04T09:57:25.529Z,89.10
2022-09-04T10:00:21.333Z,88.60
2022-09-04T10:03:39.408Z,88.30
2022-09-04T10:06:33.743Z,87.90
2022-09-04T10:09:52.617Z,87.20
2022-09-04T10:13:05.979Z,86.60
2022-09-04T10:16:03.039Z,85.80
2022-09-04T10:19:03.695Z,85.40
2022-09-04T10:22:23.191Z,85.20
2022-09-04T10:25:38.861Z,84.20
2022-09-04T10:28:42.889Z,84.00
2022-09-04T10:31:44.526Z,84.10
2022-09-04T10:35:02.817Z,83.30
2022-09-04T10:37:53.990Z,83.20
2022-09-04T10:40:51.319Z,81.90
2022-09-04T10:43:48.688Z,81.70
2022-09-04T10:46:27.507Z,81.40
2022-09-04T10:49:30.454Z,80.50
2022-09-04T10:52:44.098Z,80.20
2022-09-04T10:55:42.857Z,78.90
2022-09-04T10:58:40.073Z,78.40
2022-09-04T11:01:47.708Z,78.00
2022-09-04T11:04:49.543Z,77.40
2022-09-04T11:07:55.813Z,77.10
2022-09-04T11:10:38.657Z,76.70
2022-09-04T11:13:58.667Z,76.30
2022-09-04T11:16:51.108Z,76.00
2022-09-04T11:20:00.567Z,75.50
2022-09-04T11:23:07.197Z,75.00
2022-09-04T11:26:08.984Z,75.10
2022-09-04T11:29:11.021Z,74.30
2022-09-04T11:32:12.770Z,73.20
2022-09-04T11:35:14.310Z,73.00
2022-09-04T11:38:20.322Z,73.10
2022-09-04T11:41:18.884Z,72.90
2022-09-04T11:44:19.988Z,72.80
2022-09-04T11:47:49.193Z,72.20
2022-09-04T11:50:39.783Z,71.70
2022-09-04T11:53:36.891Z,72.10
2022-09-04T11:56:31.419Z,71.50
2022-09-04T11:59:30.238Z,70.50
2022-09-04T12:02:22.415Z,70.30
2022-09-04T12:05:17.429Z,70.50
2022-09-04T12:08:18.992Z,71.30
2022-09-04T12:11:04.197Z,70.70
2022-09-04T12:14:06.285Z,70.70
2022-09-04T12:17:06.119Z,70.60
2022-09-04T12:20:11.608Z,70.10
2022-09-04T12:23:21.597Z,69.10
2022-09-04T12:26:51.357Z,68.50
2022-09-04T12:30:13.562Z,68.40
2022-09-04T12:33:13.750Z,68.50
2022-09-04T12:36:37.065Z,68.50
2022-09-04T12:39:56.413Z,68.40
2022-09-04T12:42:27.543Z,68.50
2022-09-04T12:45:06.804Z,68.80
2022-09-04T12:47:57.489Z,68.80
2022-09-04T12:50:33.401Z,68.50
2022-09-04T12:53:26.114Z,67.60
2022-09-04T12:56:03.847Z,67.20
2022-09-04T12:58:55.254Z,66.30
2022-09-04T13:01:40.202Z,65.30
2022-09-04T13:04:19.587Z,64.60
2022-09-04T13:07:11.049Z,64.40
2022-09-04T13:10:04.786Z,64.10
2022-09-04T13:12:53.652Z,63.80
2022-09-04T13:15:35.110Z,64.00
2022-09-04T13:18:35.592Z,64.20
2022-09-04T13:21:25.815Z,64.10
2022-09-04T13:24:16.564Z,63.80
2022-09-04T13:27:10.166Z,63.30
2022-09-04T13:30:03.442Z,63.00
2022-09-04T13:32:57.716Z,62.10
2022-09-04T13:35:50.120Z,61.70
2022-09-04T13:38:44.864Z,61.80
2022-09-04T13:41:33.137Z,61.20
2022-09-04T13:44:29.126Z,60.80
2022-09-04T13:47:08.058Z,60.70
2022-09-04T14:03:15.302Z,59.00
2022-09-04T14:05:52.994Z,58.60
2022-09-04T14:08:21.637Z,58.10
2022-09-04T14:11:26.124Z,57.90
2022-09-04T14:14:24.572Z,57.40
2022-09-04T14:17:00.461Z,57.00
2022-09-04T14:19:58.988Z,57.00
2022-09-04T14:22:46.240Z,57.10
2022-09-04T14:25:22.306Z,56.80
2022-09-04T14:28:09.485Z,56.40
2022-09-04T14:30:45.622Z,56.30
2022-09-04T14:33:37.075Z,56.10
2022-09-04T14:36:26.586Z,56.00
2022-09-04T14:39:16.572Z,55.90
2022-09-04T14:42:12.202Z,55.70
2022-09-04T14:47:56.465Z,55.10
2022-09-04T14:50:46.608Z,54.90
2022-09-04T14:53:26.320Z,54.60
2022-09-04T14:56:16.865Z,54.50
2022-09-04T14:58:55.457Z,54.40
2022-09-04T15:01:25.629Z,54.40
2022-09-04T15:04:00.203Z,54.40
2022-09-04T15:07:12.344Z,53.50
2022-09-04T15:09:43.821Z,52.70
2022-09-04T15:12:24.775Z,51.90
2022-09-04T15:15:08.515Z,51.60
2022-09-04T15:17:51.520Z,51.10
2022-09-04T15:20:40.641Z,51.10
2022-09-04T15:23:23.429Z,50.90
2022-09-04T15:26:06.542Z,50.90
2022-09-04T15:31:38.527Z,50.60
2022-09-04T15:34:11.139Z,50.60
2022-09-04T15:36:39.762Z,51.30
2022-09-04T15:39:28.137Z,50.60
2022-09-04T15:42:34.154Z,50.30
2022-09-04T15:45:18.314Z,50.00
2022-09-04T15:47:58.629Z,50.30
2022-09-04T15:50:34.658Z,50.40
2022-09-04T15:53:26.329Z,50.20
2022-09-04T15:56:09.615Z,50.30
2022-09-04T15:58:55.074Z,50.10
2022-09-04T16:01:31.660Z,49.70
2022-09-04T16:04:07.212Z,50.00
2022-09-04T16:06:47.972Z,49.90
2022-09-04T16:09:38.719Z,49.90
2022-09-04T16:12:15.050Z,49.80
2022-09-04T16:14:48.391Z,49.80
2022-09-04T16:17:22.497Z,49.60
2022-09-04T16:20:07.833Z,49.40
2022-09-04T16:22:43.996Z,49.30
2022-09-04T16:25:23.987Z,49.40
2022-09-04T16:28:10.668Z,49.50
2022-09-04T16:30:47.035Z,49.50
2022-09-04T16:33:28.083Z,49.60
2022-09-04T16:36:11.343Z,49.50
2022-09-04T16:38:47.767Z,49.30
2022-09-04T16:44:25.802Z,49.40
2022-09-04T16:47:12.477Z,49.50
2022-09-04T16:56:13.069Z,48.20
2022-09-04T16:59:04.971Z,47.70
2022-09-04T17:08:43.477Z,47.30
2022-09-04T17:11:16.212Z,47.00
2022-09-04T17:17:30.583Z,47.10
2022-09-04T17:20:10.263Z,47.10
2022-09-04T17:28:57.382Z,47.00
2022-09-04T17:28:58.960Z,47.10
2022-09-04T17:29:34.287Z,47.00
2022-09-04T17:31:57.659Z,47.20
2022-09-04T17:40:38.801Z,48.20
2022-09-04T17:40:50.007Z,47.80
2022-09-04T17:41:39.607Z,48.20
2022-09-04T17:44:55.074Z,48.30
2022-09-04T17:47:32.807Z,48.50
2022-09-04T17:50:03.244Z,48.70
2022-09-04T17:52:34.094Z,48.70
2022-09-04T17:55:08.164Z,48.80
2022-09-04T17:57:52.628Z,48.90
2022-09-04T18:00:21.686Z,49.20
2022-09-04T18:03:07.822Z,49.30
2022-09-04T18:05:53.496Z,49.60
2022-09-04T18:08:44.727Z,49.70
2022-09-04T18:11:25.919Z,50.00
2022-09-04T18:14:11.189Z,50.20
2022-09-04T18:19:45.579Z,50.70
2022-09-04T18:22:33.688Z,51.00
2022-09-04T18:28:06.379Z,51.50
2022-09-04T18:37:10.076Z,51.80
2022-09-04T18:37:16.434Z,52.10
2022-09-04T18:37:24.174Z,52.40
2022-09-04T18:40:08.986Z,52.70
2022-09-04T18:50:25.656Z,52.90
2022-09-04T18:50:35.604Z,53.70
2022-09-04T18:50:39.224Z,53.30
2022-09-04T18:52:12.196Z,53.90
2022-09-04T18:54:46.337Z,54.20
2022-09-04T18:57:28.203Z,54.40
2022-09-04T19:00:14.219Z,54.60
2022-09-04T19:02:53.479Z,54.80
2022-09-04T19:05:24.536Z,55.00
2022-09-04T19:07:59.095Z,55.20
2022-09-04T19:10:29.982Z,55.40
2022-09-04T19:13:10.680Z,55.60
2022-09-04T19:16:02.666Z,55.80
2022-09-04T19:18:45.364Z,55.90
2022-09-04T19:21:36.631Z,56.20
2022-09-04T19:24:23.593Z,56.40
2022-09-04T19:27:27.561Z,56.70
2022-09-04T19:30:19.810Z,57.00
2022-09-04T19:33:07.577Z,57.30
2022-09-04T19:35:43.673Z,57.70
2022-09-04T19:42:16.955Z,57.90
2022-09-04T19:46:00.639Z,58.20
2022-09-04T19:46:24.941Z,58.50
2022-09-04T19:47:27.638Z,58.80
2022-09-04T19:53:33.252Z,59.30
2022-09-04T19:53:34.520Z,59.00
2022-09-04T19:56:16.859Z,59.70
2022-09-04T19:59:06.735Z,59.90
2022-09-04T20:02:02.723Z,60.20
2022-09-04T20:04:41.124Z,60.50
2022-09-04T20:07:29.192Z,60.80
2022-09-04T20:10:02.018Z,61.50
2022-09-04T20:12:34.964Z,62.00
2022-09-04T20:15:12.163Z,62.40
2022-09-04T20:18:04.563Z,62.50
2022-09-04T20:20:56.249Z,62.80
2022-09-04T20:23:37.651Z,62.90
2022-09-04T20:26:10.806Z,63.10
2022-09-04T20:29:04.602Z,63.30
2022-09-04T20:31:50.312Z,63.70
2022-09-04T20:34:46.271Z,63.80
2022-09-04T20:37:41.055Z,63.70
2022-09-04T20:40:22.154Z,63.50
2022-09-04T20:43:23.667Z,63.60
2022-09-04T20:52:45.747Z,63.70
2022-09-04T20:52:53.516Z,63.90
2022-09-04T20:53:11.131Z,64.00
2022-09-04T20:56:03.098Z,64.10
2022-09-04T21:03:11.577Z,64.10
2022-09-04T21:03:14.506Z,64.10
2022-09-04T21:05:50.759Z,64.40
2022-09-04T21:08:50.035Z,64.20
2022-09-04T21:11:40.720Z,64.10
2022-09-04T21:14:17.731Z,64.00
2022-09-04T21:17:35.007Z,63.90
2022-09-04T21:20:46.211Z,63.80
2022-09-04T21:24:03.636Z,64.00
2022-09-04T21:27:08.979Z,64.00
2022-09-04T21:30:03.773Z,64.10
2022-09-04T21:32:48.496Z,64.10
2022-09-04T21:35:21.186Z,64.30
2022-09-04T21:37:59.140Z,64.40
2022-09-04T21:40:54.850Z,64.50
2022-09-04T21:43:54.154Z,64.60
2022-09-04T21:46:57.255Z,64.90
2022-09-04T21:50:23.031Z,65.10
2022-09-04T21:53:36.288Z,65.00
2022-09-04T22:02:25.240Z,65.00
2022-09-04T22:02:42.627Z,65.00
2022-09-04T22:03:39.314Z,65.30
2022-09-04T22:06:34.890Z,65.70
2022-09-04T22:13:30.993Z,66.00
2022-09-04T22:13:43.867Z,66.00
2022-09-04T22:15:25.015Z,66.20
2022-09-04T22:18:24.653Z,66.30
2022-09-04T22:21:21.170Z,66.20
2022-09-04T22:24:29.741Z,66.30
2022-09-04T22:28:01.176Z,66.40
2022-09-04T22:30:35.075Z,66.40
2022-09-04T22:34:16.600Z,66.70
2022-09-04T22:37:33.889Z,67.50
2022-09-04T22:40:24.884Z,66.80
2022-09-04T22:43:12.880Z,66.80
2022-09-04T22:46:30.843Z,67.00
2022-09-04T22:49:28.831Z,67.10
2022-09-04T22:52:39.332Z,67.40
2022-09-04T22:55:40.464Z,67.50
2022-09-04T22:59:20.492Z,67.60
2022-09-04T23:02:54.132Z,67.70
2022-09-04T23:08:17.644Z,67.80
2022-09-04T23:13:51.499Z,67.90
2022-09-04T23:14:00.920Z,68.10
2022-09-04T23:16:10.979Z,68.20
2022-09-04T23:23:40.140Z,68.50
2022-09-04T23:26:33.168Z,68.60
2022-09-04T23:26:43.940Z,68.70
2022-09-04T23:28:28.285Z,68.90
2022-09-04T23:31:27.478Z,69.10
2022-09-04T23:34:27.558Z,69.10
2022-09-04T23:37:41.345Z,69.20
2022-09-04T23:40:51.178Z,69.30
2022-09-04T23:43:55.099Z,69.70
2022-09-04T23:46:53.003Z,69.80
2022-09-04T23:49:53.041Z,69.90
2022-09-04T23:52:48.569Z,70.10
2022-09-04T23:55:37.280Z,70.30
2022-09-04T23:58:57.341Z,70.50
